sensor_id;sensor_type;location;lat;lon;timestamp;P1;durP1;ratioP1;P2;durP2;ratioP2
74894;SDS011;63447;49.446;8.666;2023-07-08T00:01:20;11.02;;;5.10;;
74894;SDS011;63447;49.446;8.666;2023-07-08T00:03:48;10.63;;;4.68;;
74894;SDS011;63447;49.446;8.666;2023-07-08T00:06:19;9.52;;;4.82;;
74894;SDS011;63447;49.446;8.666;2023-07-08T00:08:49;9.27;;;4.68;;
74894;SDS011;63447;49.446;8.666;2023-07-08T00:11:14;10.00;;;4.80;;
74894;SDS011;63447;49.446;8.666;2023-07-08T00:13:43;9.77;;;4.57;;
74894;SDS011;63447;49.446;8.666;2023-07-08T00:16:12;8.98;;;4.18;;
74894;SDS011;63447;49.446;8.666;2023-07-08T00:18:40;9.70;;;4.35;;
74894;SDS011;63447;49.446;8.666;2023-07-08T00:21:12;8.07;;;4.20;;
74894;SDS011;63447;49.446;8.666;2023-07-08T00:23:48;9.35;;;4.88;;
74894;SDS011;63447;49.446;8.666;2023-07-08T00:26:17;9.23;;;4.40;;
74894;SDS011;63447;49.446;8.666;2023-07-08T00:28:46;9.30;;;4.53;;
74894;SDS011;63447;49.446;8.666;2023-07-08T00:31:11;9.47;;;5.07;;
74894;SDS011;63447;49.446;8.666;2023-07-08T00:33:39;8.60;;;4.38;;
74894;SDS011;63447;49.446;8.666;2023-07-08T00:36:08;9.70;;;4.75;;
74894;SDS011;63447;49.446;8.666;2023-07-08T00:38:38;9.45;;;4.40;;
74894;SDS011;63447;49.446;8.666;2023-07-08T00:41:11;8.63;;;4.30;;
74894;SDS011;63447;49.446;8.666;2023-07-08T00:49:56;9.27;;;4.35;;
74894;SDS011;63447;49.446;8.666;2023-07-08T00:51:51;10.43;;;4.45;;
74894;SDS011;63447;49.446;8.666;2023-07-08T00:54:19;8.05;;;4.28;;
74894;SDS011;63447;49.446;8.666;2023-07-08T00:57:00;8.73;;;4.53;;
74894;SDS011;63447;49.446;8.666;2023-07-08T00:59:35;8.88;;;4.15;;
74894;SDS011;63447;49.446;8.666;2023-07-08T01:02:09;8.88;;;4.50;;
74894;SDS011;63447;49.446;8.666;2023-07-08T01:04:39;10.70;;;4.80;;
74894;SDS011;63447;49.446;8.666;2023-07-08T01:07:17;9.68;;;4.60;;
74894;SDS011;63447;49.446;8.666;2023-07-08T01:09:48;8.88;;;4.10;;
74894;SDS011;63447;49.446;8.666;2023-07-08T01:12:19;10.02;;;4.93;;
74894;SDS011;63447;49.446;8.666;2023-07-08T01:14:51;10.20;;;4.38;;
74894;SDS011;63447;49.446;8.666;2023-07-08T01:17:19;8.20;;;4.50;;
74894;SDS011;63447;49.446;8.666;2023-07-08T01:19:49;10.30;;;4.43;;
74894;SDS011;63447;49.446;8.666;2023-07-08T01:22:20;8.93;;;4.55;;
74894;SDS011;63447;49.446;8.666;2023-07-08T01:24:45;9.68;;;4.03;;
74894;SDS011;63447;49.446;8.666;2023-07-08T01:27:12;8.77;;;4.55;;
74894;SDS011;63447;49.446;8.666;2023-07-08T01:29:39;8.50;;;4.13;;
74894;SDS011;63447;49.446;8.666;2023-07-08T01:32:05;9.40;;;4.45;;
74894;SDS011;63447;49.446;8.666;2023-07-08T01:34:31;9.75;;;4.45;;
74894;SDS011;63447;49.446;8.666;2023-07-08T01:36:59;8.82;;;4.82;;
74894;SDS011;63447;49.446;8.666;2023-07-08T01:39:32;9.38;;;4.70;;
74894;SDS011;63447;49.446;8.666;2023-07-08T01:42:00;9.10;;;4.10;;
74894;SDS011;63447;49.446;8.666;2023-07-08T01:44:32;8.85;;;4.03;;
74894;SDS011;63447;49.446;8.666;2023-07-08T01:47:01;10.52;;;4.60;;
74894;SDS011;63447;49.446;8.666;2023-07-08T01:49:31;8.55;;;4.57;;
74894;SDS011;63447;49.446;8.666;2023-07-08T01:52:01;8.88;;;4.63;;
74894;SDS011;63447;49.446;8.666;2023-07-08T01:54:29;10.65;;;4.97;;
74894;SDS011;63447;49.446;8.666;2023-07-08T01:56:55;7.77;;;4.00;;
74894;SDS011;63447;49.446;8.666;2023-07-08T01:59:23;9.30;;;4.65;;
74894;SDS011;63447;49.446;8.666;2023-07-08T02:01:50;12.77;;;4.22;;
74894;SDS011;63447;49.446;8.666;2023-07-08T02:04:21;10.57;;;4.45;;
74894;SDS011;63447;49.446;8.666;2023-07-08T02:06:51;8.70;;;4.13;;
74894;SDS011;63447;49.446;8.666;2023-07-08T02:09:18;8.68;;;4.40;;
74894;SDS011;63447;49.446;8.666;2023-07-08T02:11:46;8.07;;;3.80;;
74894;SDS011;63447;49.446;8.666;2023-07-08T02:14:16;8.75;;;4.25;;
74894;SDS011;63447;49.446;8.666;2023-07-08T02:16:41;8.05;;;4.40;;
74894;SDS011;63447;49.446;8.666;2023-07-08T02:19:07;9.80;;;4.63;;
74894;SDS011;63447;49.446;8.666;2023-07-08T02:21:32;9.50;;;4.25;;
74894;SDS011;63447;49.446;8.666;2023-07-08T02:24:02;9.98;;;4.50;;
74894;SDS011;63447;49.446;8.666;2023-07-08T02:26:29;9.25;;;4.53;;
74894;SDS011;63447;49.446;8.666;2023-07-08T02:28:57;9.68;;;4.60;;
74894;SDS011;63447;49.446;8.666;2023-07-08T02:31:23;9.48;;;4.57;;
74894;SDS011;63447;49.446;8.666;2023-07-08T02:33:49;8.55;;;4.25;;
74894;SDS011;63447;49.446;8.666;2023-07-08T02:36:15;8.70;;;4.20;;
74894;SDS011;63447;49.446;8.666;2023-07-08T02:38:40;9.80;;;4.63;;
74894;SDS011;63447;49.446;8.666;2023-07-08T02:41:08;9.60;;;4.47;;
74894;SDS011;63447;49.446;8.666;2023-07-08T02:43:34;8.77;;;4.70;;
74894;SDS011;63447;49.446;8.666;2023-07-08T02:45:59;8.82;;;4.45;;
74894;SDS011;63447;49.446;8.666;2023-07-08T02:48:27;10.47;;;4.40;;
74894;SDS011;63447;49.446;8.666;2023-07-08T02:50:58;9.30;;;4.57;;
74894;SDS011;63447;49.446;8.666;2023-07-08T02:53:27;9.05;;;4.80;;
74894;SDS011;63447;49.446;8.666;2023-07-08T02:55:55;9.63;;;4.65;;
74894;SDS011;63447;49.446;8.666;2023-07-08T02:58:23;9.02;;;4.53;;
74894;SDS011;63447;49.446;8.666;2023-07-08T03:00:52;9.70;;;4.35;;
74894;SDS011;63447;49.446;8.666;2023-07-08T03:03:18;12.52;;;4.60;;
74894;SDS011;63447;49.446;8.666;2023-07-08T03:05:43;9.75;;;4.60;;
74894;SDS011;63447;49.446;8.666;2023-07-08T03:08:12;8.43;;;4.40;;
74894;SDS011;63447;49.446;8.666;2023-07-08T03:10:42;9.52;;;4.13;;
74894;SDS011;63447;49.446;8.666;2023-07-08T03:13:14;9.02;;;3.92;;
74894;SDS011;63447;49.446;8.666;2023-07-08T03:15:44;9.43;;;4.43;;
74894;SDS011;63447;49.446;8.666;2023-07-08T03:18:14;8.25;;;4.00;;
74894;SDS011;63447;49.446;8.666;2023-07-08T03:20:41;8.32;;;4.03;;
74894;SDS011;63447;49.446;8.666;2023-07-08T03:23:10;11.95;;;4.65;;
74894;SDS011;63447;49.446;8.666;2023-07-08T03:25:36;8.77;;;4.10;;
74894;SDS011;63447;49.446;8.666;2023-07-08T03:28:02;7.53;;;3.85;;
74894;SDS011;63447;49.446;8.666;2023-07-08T03:30:31;9.70;;;4.40;;
74894;SDS011;63447;49.446;8.666;2023-07-08T03:33:00;7.93;;;4.30;;
74894;SDS011;63447;49.446;8.666;2023-07-08T03:35:28;7.90;;;4.03;;
74894;SDS011;63447;49.446;8.666;2023-07-08T03:38:00;7.90;;;3.95;;
74894;SDS011;63447;49.446;8.666;2023-07-08T03:40:28;8.65;;;4.50;;
74894;SDS011;63447;49.446;8.666;2023-07-08T03:42:54;9.27;;;4.22;;
74894;SDS011;63447;49.446;8.666;2023-07-08T03:45:21;10.33;;;4.30;;
74894;SDS011;63447;49.446;8.666;2023-07-08T03:47:49;8.48;;;4.10;;
74894;SDS011;63447;49.446;8.666;2023-07-08T03:52:53;8.93;;;4.35;;
74894;SDS011;63447;49.446;8.666;2023-07-08T03:55:22;8.15;;;4.05;;
74894;SDS011;63447;49.446;8.666;2023-07-08T03:57:48;8.80;;;4.38;;
74894;SDS011;63447;49.446;8.666;2023-07-08T04:00:13;9.57;;;4.83;;
74894;SDS011;63447;49.446;8.666;2023-07-08T04:02:45;10.55;;;4.55;;
74894;SDS011;63447;49.446;8.666;2023-07-08T04:05:17;12.95;;;4.97;;
74894;SDS011;63447;49.446;8.666;2023-07-08T04:07:44;9.98;;;4.97;;
74894;SDS011;63447;49.446;8.666;2023-07-08T04:10:16;9.90;;;5.07;;
74894;SDS011;63447;49.446;8.666;2023-07-08T04:12:42;9.85;;;4.50;;
74894;SDS011;63447;49.446;8.666;2023-07-08T04:15:10;9.77;;;5.03;;
74894;SDS011;63447;49.446;8.666;2023-07-08T04:17:43;9.82;;;4.97;;
74894;SDS011;63447;49.446;8.666;2023-07-08T04:20:16;10.88;;;4.93;;
74894;SDS011;63447;49.446;8.666;2023-07-08T04:22:43;10.88;;;5.28;;
74894;SDS011;63447;49.446;8.666;2023-07-08T04:25:10;10.48;;;5.40;;
74894;SDS011;63447;49.446;8.666;2023-07-08T04:27:36;11.10;;;5.50;;
74894;SDS011;63447;49.446;8.666;2023-07-08T04:30:05;11.20;;;5.60;;
74894;SDS011;63447;49.446;8.666;2023-07-08T04:32:31;10.73;;;5.20;;
74894;SDS011;63447;49.446;8.666;2023-07-08T04:35:02;9.57;;;5.28;;
74894;SDS011;63447;49.446;8.666;2023-07-08T04:37:28;9.10;;;4.90;;
74894;SDS011;63447;49.446;8.666;2023-07-08T04:39:53;9.03;;;4.97;;
74894;SDS011;63447;49.446;8.666;2023-07-08T04:42:19;8.93;;;4.80;;
74894;SDS011;63447;49.446;8.666;2023-07-08T04:44:46;9.43;;;4.72;;
74894;SDS011;63447;49.446;8.666;2023-07-08T04:47:14;9.05;;;5.15;;
74894;SDS011;63447;49.446;8.666;2023-07-08T04:49:39;9.27;;;4.70;;
74894;SDS011;63447;49.446;8.666;2023-07-08T04:52:08;11.13;;;5.15;;
74894;SDS011;63447;49.446;8.666;2023-07-08T04:54:34;10.38;;;5.20;;
74894;SDS011;63447;49.446;8.666;2023-07-08T04:56:59;10.93;;;5.33;;
74894;SDS011;63447;49.446;8.666;2023-07-08T04:59:25;9.77;;;4.80;;
74894;SDS011;63447;49.446;8.666;2023-07-08T05:01:53;12.00;;;5.18;;
74894;SDS011;63447;49.446;8.666;2023-07-08T05:04:21;13.07;;;5.45;;
74894;SDS011;63447;49.446;8.666;2023-07-08T05:06:47;11.68;;;5.60;;
74894;SDS011;63447;49.446;8.666;2023-07-08T05:09:16;10.55;;;5.22;;
74894;SDS011;63447;49.446;8.666;2023-07-08T05:11:46;11.35;;;5.88;;
74894;SDS011;63447;49.446;8.666;2023-07-08T05:14:12;10.02;;;5.50;;
74894;SDS011;63447;49.446;8.666;2023-07-08T05:16:38;12.13;;;5.53;;
74894;SDS011;63447;49.446;8.666;2023-07-08T05:19:06;12.95;;;5.35;;
74894;SDS011;63447;49.446;8.666;2023-07-08T05:21:32;12.05;;;5.72;;
74894;SDS011;63447;49.446;8.666;2023-07-08T05:24:03;9.93;;;5.30;;
74894;SDS011;63447;49.446;8.666;2023-07-08T05:26:35;10.55;;;4.40;;
74894;SDS011;63447;49.446;8.666;2023-07-08T05:29:03;9.18;;;4.55;;
74894;SDS011;63447;49.446;8.666;2023-07-08T05:31:33;9.10;;;4.20;;
74894;SDS011;63447;49.446;8.666;2023-07-08T05:34:01;9.00;;;4.03;;
74894;SDS011;63447;49.446;8.666;2023-07-08T05:36:29;8.98;;;5.05;;
74894;SDS011;63447;49.446;8.666;2023-07-08T05:38:54;9.88;;;4.50;;
74894;SDS011;63447;49.446;8.666;2023-07-08T05:41:22;8.70;;;4.28;;
74894;SDS011;63447;49.446;8.666;2023-07-08T05:43:47;9.50;;;4.20;;
74894;SDS011;63447;49.446;8.666;2023-07-08T05:46:16;8.75;;;4.75;;
74894;SDS011;63447;49.446;8.666;2023-07-08T05:48:41;12.38;;;6.13;;
74894;SDS011;63447;49.446;8.666;2023-07-08T05:51:06;11.63;;;6.23;;
74894;SDS011;63447;49.446;8.666;2023-07-08T05:53:34;13.00;;;6.68;;
74894;SDS011;63447;49.446;8.666;2023-07-08T05:55:59;12.00;;;6.17;;
74894;SDS011;63447;49.446;8.666;2023-07-08T05:58:29;13.65;;;6.05;;
74894;SDS011;63447;49.446;8.666;2023-07-08T06:00:55;11.98;;;6.47;;
74894;SDS011;63447;49.446;8.666;2023-07-08T06:03:24;13.50;;;7.03;;
74894;SDS011;63447;49.446;8.666;2023-07-08T06:05:52;14.55;;;7.32;;
74894;SDS011;63447;49.446;8.666;2023-07-08T06:08:17;11.13;;;6.72;;
74894;SDS011;63447;49.446;8.666;2023-07-08T06:10:48;14.32;;;6.22;;
74894;SDS011;63447;49.446;8.666;2023-07-08T06:13:14;11.80;;;6.35;;
74894;SDS011;63447;49.446;8.666;2023-07-08T06:15:42;12.77;;;6.03;;
74894;SDS011;63447;49.446;8.666;2023-07-08T06:18:07;15.17;;;6.60;;
74894;SDS011;63447;49.446;8.666;2023-07-08T06:20:37;13.43;;;6.97;;
74894;SDS011;63447;49.446;8.666;2023-07-08T06:23:02;15.35;;;6.68;;
74894;SDS011;63447;49.446;8.666;2023-07-08T06:25:28;12.48;;;5.55;;
74894;SDS011;63447;49.446;8.666;2023-07-08T06:27:56;12.25;;;5.75;;
74894;SDS011;63447;49.446;8.666;2023-07-08T06:30:21;12.95;;;6.82;;
74894;SDS011;63447;49.446;8.666;2023-07-08T06:32:49;9.95;;;5.65;;
74894;SDS011;63447;49.446;8.666;2023-07-08T06:35:16;12.52;;;6.18;;
74894;SDS011;63447;49.446;8.666;2023-07-08T06:37:42;13.70;;;6.47;;
74894;SDS011;63447;49.446;8.666;2023-07-08T06:40:09;11.07;;;5.63;;
74894;SDS011;63447;49.446;8.666;2023-07-08T06:42:35;11.45;;;5.63;;
74894;SDS011;63447;49.446;8.666;2023-07-08T06:45:03;12.35;;;5.95;;
74894;SDS011;63447;49.446;8.666;2023-07-08T06:47:33;13.07;;;6.50;;
74894;SDS011;63447;49.446;8.666;2023-07-08T06:50:01;10.60;;;5.80;;
74894;SDS011;63447;49.446;8.666;2023-07-08T06:52:27;12.95;;;6.32;;
74894;SDS011;63447;49.446;8.666;2023-07-08T06:54:59;10.88;;;5.55;;
74894;SDS011;63447;49.446;8.666;2023-07-08T06:57:33;10.38;;;5.40;;
74894;SDS011;63447;49.446;8.666;2023-07-08T06:59:59;9.27;;;4.28;;
74894;SDS011;63447;49.446;8.666;2023-07-08T07:02:25;8.90;;;4.50;;
74894;SDS011;63447;49.446;8.666;2023-07-08T07:04:52;11.73;;;4.32;;
74894;SDS011;63447;49.446;8.666;2023-07-08T07:07:18;9.17;;;4.07;;
74894;SDS011;63447;49.446;8.666;2023-07-08T07:09:45;9.77;;;4.30;;
74894;SDS011;63447;49.446;8.666;2023-07-08T07:12:11;8.50;;;4.30;;
74894;SDS011;63447;49.446;8.666;2023-07-08T07:14:36;9.27;;;4.30;;
74894;SDS011;63447;49.446;8.666;2023-07-08T07:17:01;9.90;;;4.33;;
74894;SDS011;63447;49.446;8.666;2023-07-08T07:19:29;8.98;;;4.00;;
74894;SDS011;63447;49.446;8.666;2023-07-08T07:21:55;9.30;;;4.40;;
74894;SDS011;63447;49.446;8.666;2023-07-08T07:24:20;11.57;;;4.38;;
74894;SDS011;63447;49.446;8.666;2023-07-08T07:26:47;9.57;;;3.90;;
74894;SDS011;63447;49.446;8.666;2023-07-08T07:29:17;9.70;;;4.30;;
74894;SDS011;63447;49.446;8.666;2023-07-08T07:31:46;8.02;;;4.00;;
74894;SDS011;63447;49.446;8.666;2023-07-08T07:34:12;8.80;;;3.72;;
74894;SDS011;63447;49.446;8.666;2023-07-08T07:36:41;8.50;;;3.72;;
74894;SDS011;63447;49.446;8.666;2023-07-08T07:39:06;8.50;;;4.20;;
74894;SDS011;63447;49.446;8.666;2023-07-08T07:41:37;11.15;;;4.35;;
74894;SDS011;63447;49.446;8.666;2023-07-08T07:44:02;11.05;;;4.45;;
74894;SDS011;63447;49.446;8.666;2023-07-08T07:46:30;8.48;;;4.32;;
74894;SDS011;63447;49.446;8.666;2023-07-08T07:48:57;7.72;;;3.90;;
74894;SDS011;63447;49.446;8.666;2023-07-08T07:51:23;9.65;;;4.07;;
74894;SDS011;63447;49.446;8.666;2023-07-08T07:53:48;8.02;;;4.05;;
74894;SDS011;63447;49.446;8.666;2023-07-08T07:56:14;8.63;;;3.80;;
74894;SDS011;63447;49.446;8.666;2023-07-08T07:58:41;8.88;;;4.00;;
74894;SDS011;63447;49.446;8.666;2023-07-08T08:01:06;8.90;;;4.27;;
74894;SDS011;63447;49.446;8.666;2023-07-08T08:03:32;12.05;;;4.53;;
74894;SDS011;63447;49.446;8.666;2023-07-08T08:05:57;8.23;;;4.47;;
74894;SDS011;63447;49.446;8.666;2023-07-08T08:08:23;6.75;;;3.33;;
74894;SDS011;63447;49.446;8.666;2023-07-08T08:10:53;10.38;;;4.55;;
74894;SDS011;63447;49.446;8.666;2023-07-08T08:13:20;8.00;;;3.83;;
74894;SDS011;63447;49.446;8.666;2023-07-08T08:15:45;8.68;;;3.70;;
74894;SDS011;63447;49.446;8.666;2023-07-08T08:18:11;9.37;;;3.90;;
74894;SDS011;63447;49.446;8.666;2023-07-08T08:20:39;7.70;;;3.23;;
74894;SDS011;63447;49.446;8.666;2023-07-08T08:23:13;8.15;;;3.60;;
74894;SDS011;63447;49.446;8.666;2023-07-08T08:25:40;7.88;;;3.60;;
74894;SDS011;63447;49.446;8.666;2023-07-08T08:28:08;8.27;;;3.25;;
74894;SDS011;63447;49.446;8.666;2023-07-08T08:30:36;8.43;;;3.40;;
74894;SDS011;63447;49.446;8.666;2023-07-08T08:33:04;6.82;;;3.00;;
74894;SDS011;63447;49.446;8.666;2023-07-08T08:35:30;7.28;;;3.20;;
74894;SDS011;63447;49.446;8.666;2023-07-08T08:37:58;5.80;;;2.40;;
74894;SDS011;63447;49.446;8.666;2023-07-08T08:40:23;6.68;;;2.40;;
74894;SDS011;63447;49.446;8.666;2023-07-08T08:42:52;7.40;;;2.33;;
74894;SDS011;63447;49.446;8.666;2023-07-08T08:45:27;7.03;;;2.22;;
74894;SDS011;63447;49.446;8.666;2023-07-08T08:47:59;6.03;;;2.35;;
74894;SDS011;63447;49.446;8.666;2023-07-08T08:50:31;6.45;;;2.30;;
74894;SDS011;63447;49.446;8.666;2023-07-08T08:53:02;7.20;;;2.75;;
74894;SDS011;63447;49.446;8.666;2023-07-08T08:55:32;8.07;;;2.38;;
74894;SDS011;63447;49.446;8.666;2023-07-08T09:01:02;9.23;;;2.60;;
74894;SDS011;63447;49.446;8.666;2023-07-08T09:06:18;5.53;;;2.45;;
74894;SDS011;63447;49.446;8.666;2023-07-08T09:08:46;5.72;;;2.30;;
74894;SDS011;63447;49.446;8.666;2023-07-08T09:14:09;7.25;;;2.53;;
74894;SDS011;63447;49.446;8.666;2023-07-08T09:17:04;8.10;;;2.33;;
74894;SDS011;63447;49.446;8.666;2023-07-08T09:19:44;7.07;;;2.67;;
74894;SDS011;63447;49.446;8.666;2023-07-08T09:22:19;6.15;;;2.55;;
74894;SDS011;63447;49.446;8.666;2023-07-08T09:27:29;8.63;;;3.47;;
74894;SDS011;63447;49.446;8.666;2023-07-08T09:29:59;6.82;;;2.70;;
74894;SDS011;63447;49.446;8.666;2023-07-08T09:32:27;6.82;;;2.63;;
74894;SDS011;63447;49.446;8.666;2023-07-08T09:35:01;8.43;;;2.60;;
74894;SDS011;63447;49.446;8.666;2023-07-08T09:37:30;8.43;;;2.35;;
74894;SDS011;63447;49.446;8.666;2023-07-08T09:39:57;7.03;;;2.67;;
74894;SDS011;63447;49.446;8.666;2023-07-08T09:42:25;6.90;;;2.63;;
74894;SDS011;63447;49.446;8.666;2023-07-08T09:44:58;6.40;;;2.80;;
74894;SDS011;63447;49.446;8.666;2023-07-08T09:47:33;6.72;;;2.70;;
74894;SDS011;63447;49.446;8.666;2023-07-08T09:50:00;6.15;;;2.45;;
74894;SDS011;63447;49.446;8.666;2023-07-08T09:52:32;5.20;;;2.33;;
74894;SDS011;63447;49.446;8.666;2023-07-08T09:54:57;7.90;;;2.50;;
74894;SDS011;63447;49.446;8.666;2023-07-08T09:57:27;7.65;;;2.70;;
74894;SDS011;63447;49.446;8.666;2023-07-08T10:00:03;6.63;;;2.83;;
74894;SDS011;63447;49.446;8.666;2023-07-08T10:02:41;7.38;;;2.53;;
74894;SDS011;63447;49.446;8.666;2023-07-08T10:05:14;7.03;;;2.65;;
74894;SDS011;63447;49.446;8.666;2023-07-08T10:07:46;7.93;;;2.67;;
74894;SDS011;63447;49.446;8.666;2023-07-08T10:10:17;7.18;;;3.00;;
74894;SDS011;63447;49.446;8.666;2023-07-08T10:12:58;6.85;;;2.75;;
74894;SDS011;63447;49.446;8.666;2023-07-08T10:15:31;8.07;;;3.10;;
74894;SDS011;63447;49.446;8.666;2023-07-08T10:18:02;7.43;;;3.15;;
74894;SDS011;63447;49.446;8.666;2023-07-08T10:20:39;6.95;;;2.78;;
74894;SDS011;63447;49.446;8.666;2023-07-08T10:26:03;6.60;;;3.05;;
74894;SDS011;63447;49.446;8.666;2023-07-08T10:42:23;7.38;;;3.35;;
74894;SDS011;63447;49.446;8.666;2023-07-08T10:47:56;7.55;;;3.20;;
74894;SDS011;63447;49.446;8.666;2023-07-08T10:50:41;8.65;;;3.50;;
74894;SDS011;63447;49.446;8.666;2023-07-08T10:53:36;7.15;;;3.53;;
74894;SDS011;63447;49.446;8.666;2023-07-08T11:10:23;7.85;;;3.80;;
74894;SDS011;63447;49.446;8.666;2023-07-08T11:15:28;7.65;;;3.45;;
74894;SDS011;63447;49.446;8.666;2023-07-08T11:20:40;7.63;;;3.70;;
74894;SDS011;63447;49.446;8.666;2023-07-08T11:23:10;9.23;;;3.38;;
74894;SDS011;63447;49.446;8.666;2023-07-08T11:25:43;11.45;;;3.63;;
74894;SDS011;63447;49.446;8.666;2023-07-08T11:28:12;7.85;;;3.78;;
74894;SDS011;63447;49.446;8.666;2023-07-08T11:30:41;7.78;;;3.38;;
74894;SDS011;63447;49.446;8.666;2023-07-08T11:33:11;7.28;;;3.47;;
74894;SDS011;63447;49.446;8.666;2023-07-08T11:35:47;7.13;;;3.72;;
74894;SDS011;63447;49.446;8.666;2023-07-08T11:38:23;7.47;;;3.60;;
74894;SDS011;63447;49.446;8.666;2023-07-08T11:40:56;7.43;;;3.50;;
74894;SDS011;63447;49.446;8.666;2023-07-08T11:43:23;6.03;;;3.38;;
74894;SDS011;63447;49.446;8.666;2023-07-08T11:48:25;8.65;;;3.75;;
74894;SDS011;63447;49.446;8.666;2023-07-08T11:50:54;7.50;;;3.20;;
74894;SDS011;63447;49.446;8.666;2023-07-08T11:58:33;7.75;;;3.35;;
74894;SDS011;63447;49.446;8.666;2023-07-08T12:09:14;9.10;;;3.67;;
74894;SDS011;63447;49.446;8.666;2023-07-08T12:11:40;7.82;;;3.70;;
74894;SDS011;63447;49.446;8.666;2023-07-08T12:14:09;7.82;;;3.88;;
74894;SDS011;63447;49.446;8.666;2023-07-08T12:16:39;8.20;;;3.70;;
74894;SDS011;63447;49.446;8.666;2023-07-08T12:19:10;7.80;;;3.45;;
74894;SDS011;63447;49.446;8.666;2023-07-08T12:21:41;10.20;;;3.80;;
74894;SDS011;63447;49.446;8.666;2023-07-08T12:24:06;7.57;;;3.63;;
74894;SDS011;63447;49.446;8.666;2023-07-08T12:26:40;7.35;;;3.80;;
74894;SDS011;63447;49.446;8.666;2023-07-08T12:29:09;8.27;;;3.83;;
74894;SDS011;63447;49.446;8.666;2023-07-08T12:31:36;10.00;;;3.97;;
74894;SDS011;63447;49.446;8.666;2023-07-08T12:34:02;8.20;;;3.67;;
74894;SDS011;63447;49.446;8.666;2023-07-08T12:36:30;7.43;;;3.67;;
74894;SDS011;63447;49.446;8.666;2023-07-08T12:38:58;8.43;;;4.22;;
74894;SDS011;63447;49.446;8.666;2023-07-08T12:41:31;8.77;;;3.78;;
74894;SDS011;63447;49.446;8.666;2023-07-08T12:44:01;9.85;;;3.88;;
74894;SDS011;63447;49.446;8.666;2023-07-08T12:46:27;9.25;;;3.97;;
74894;SDS011;63447;49.446;8.666;2023-07-08T12:48:53;7.53;;;3.72;;
74894;SDS011;63447;49.446;8.666;2023-07-08T12:51:19;8.40;;;3.60;;
74894;SDS011;63447;49.446;8.666;2023-07-08T12:53:48;7.22;;;3.67;;
74894;SDS011;63447;49.446;8.666;2023-07-08T12:56:17;8.18;;;3.80;;
74894;SDS011;63447;49.446;8.666;2023-07-08T12:58:52;8.60;;;3.78;;
74894;SDS011;63447;49.446;8.666;2023-07-08T13:01:23;8.02;;;3.72;;
74894;SDS011;63447;49.446;8.666;2023-07-08T13:03:52;8.35;;;3.78;;
74894;SDS011;63447;49.446;8.666;2023-07-08T13:06:23;6.88;;;3.70;;
74894;SDS011;63447;49.446;8.666;2023-07-08T13:08:55;8.85;;;4.25;;
74894;SDS011;63447;49.446;8.666;2023-07-08T13:11:27;8.65;;;4.25;;
74894;SDS011;63447;49.446;8.666;2023-07-08T13:13:54;8.07;;;3.90;;
74894;SDS011;63447;49.446;8.666;2023-07-08T13:16:28;10.05;;;3.85;;
74894;SDS011;63447;49.446;8.666;2023-07-08T13:21:22;7.88;;;3.67;;
74894;SDS011;63447;49.446;8.666;2023-07-08T13:23:49;6.95;;;3.55;;
74894;SDS011;63447;49.446;8.666;2023-07-08T13:26:19;7.50;;;3.40;;
74894;SDS011;63447;49.446;8.666;2023-07-08T13:28:46;7.50;;;3.47;;
74894;SDS011;63447;49.446;8.666;2023-07-08T13:33:49;7.28;;;3.38;;
74894;SDS011;63447;49.446;8.666;2023-07-08T13:36:19;8.55;;;3.67;;
74894;SDS011;63447;49.446;8.666;2023-07-08T13:38:58;8.15;;;3.45;;
74894;SDS011;63447;49.446;8.666;2023-07-08T13:41:26;7.25;;;3.13;;
74894;SDS011;63447;49.446;8.666;2023-07-08T13:43:52;8.07;;;3.40;;
74894;SDS011;63447;49.446;8.666;2023-07-08T13:46:31;9.15;;;3.70;;
74894;SDS011;63447;49.446;8.666;2023-07-08T13:49:00;7.55;;;3.50;;
74894;SDS011;63447;49.446;8.666;2023-07-08T13:51:40;6.65;;;3.50;;
74894;SDS011;63447;49.446;8.666;2023-07-08T13:54:24;7.80;;;3.30;;
74894;SDS011;63447;49.446;8.666;2023-07-08T13:56:59;7.00;;;3.05;;
74894;SDS011;63447;49.446;8.666;2023-07-08T13:59:26;7.20;;;3.10;;
74894;SDS011;63447;49.446;8.666;2023-07-08T14:01:52;6.95;;;3.33;;
74894;SDS011;63447;49.446;8.666;2023-07-08T14:04:30;6.95;;;3.28;;
74894;SDS011;63447;49.446;8.666;2023-07-08T14:06:59;7.03;;;3.00;;
74894;SDS011;63447;49.446;8.666;2023-07-08T14:09:26;7.43;;;2.92;;
74894;SDS011;63447;49.446;8.666;2023-07-08T14:11:57;7.90;;;3.08;;
74894;SDS011;63447;49.446;8.666;2023-07-08T14:14:22;5.05;;;2.53;;
74894;SDS011;63447;49.446;8.666;2023-07-08T14:16:49;7.38;;;2.88;;
74894;SDS011;63447;49.446;8.666;2023-07-08T14:19:21;9.18;;;3.13;;
74894;SDS011;63447;49.446;8.666;2023-07-08T14:21:53;7.72;;;3.20;;
74894;SDS011;63447;49.446;8.666;2023-07-08T14:24:21;5.88;;;2.75;;
74894;SDS011;63447;49.446;8.666;2023-07-08T14:26:46;8.85;;;2.95;;
74894;SDS011;63447;49.446;8.666;2023-07-08T14:29:15;7.25;;;2.90;;
74894;SDS011;63447;49.446;8.666;2023-07-08T14:31:42;8.10;;;2.85;;
74894;SDS011;63447;49.446;8.666;2023-07-08T14:34:10;6.75;;;3.08;;
74894;SDS011;63447;49.446;8.666;2023-07-08T14:36:42;7.28;;;2.80;;
74894;SDS011;63447;49.446;8.666;2023-07-08T14:39:16;7.80;;;2.78;;
74894;SDS011;63447;49.446;8.666;2023-07-08T14:41:46;9.65;;;2.60;;
74894;SDS011;63447;49.446;8.666;2023-07-08T14:44:25;6.13;;;2.72;;
74894;SDS011;63447;49.446;8.666;2023-07-08T14:46:57;7.50;;;2.60;;
74894;SDS011;63447;49.446;8.666;2023-07-08T14:49:23;6.47;;;2.60;;
74894;SDS011;63447;49.446;8.666;2023-07-08T14:51:51;6.75;;;2.83;;
74894;SDS011;63447;49.446;8.666;2023-07-08T14:54:17;5.88;;;2.70;;
74894;SDS011;63447;49.446;8.666;2023-07-08T14:56:43;8.52;;;3.00;;
74894;SDS011;63447;49.446;8.666;2023-07-08T14:59:11;6.68;;;2.50;;
74894;SDS011;63447;49.446;8.666;2023-07-08T15:01:40;8.18;;;2.63;;
74894;SDS011;63447;49.446;8.666;2023-07-08T15:04:09;8.48;;;2.78;;
74894;SDS011;63447;49.446;8.666;2023-07-08T15:06:36;8.38;;;3.20;;
74894;SDS011;63447;49.446;8.666;2023-07-08T15:09:07;6.82;;;2.60;;
74894;SDS011;63447;49.446;8.666;2023-07-08T15:11:42;6.05;;;2.60;;
74894;SDS011;63447;49.446;8.666;2023-07-08T15:16:43;6.10;;;2.38;;
74894;SDS011;63447;49.446;8.666;2023-07-08T15:19:10;7.97;;;2.65;;
74894;SDS011;63447;49.446;8.666;2023-07-08T15:21:41;6.88;;;2.80;;
74894;SDS011;63447;49.446;8.666;2023-07-08T15:24:08;6.30;;;2.42;;
74894;SDS011;63447;49.446;8.666;2023-07-08T15:26:38;6.20;;;2.08;;
74894;SDS011;63447;49.446;8.666;2023-07-08T15:29:06;6.80;;;2.03;;
74894;SDS011;63447;49.446;8.666;2023-07-08T15:31:43;7.22;;;2.20;;
74894;SDS011;63447;49.446;8.666;2023-07-08T15:34:14;6.38;;;2.70;;
74894;SDS011;63447;49.446;8.666;2023-07-08T15:36:44;5.85;;;2.35;;
74894;SDS011;63447;49.446;8.666;2023-07-08T15:39:13;5.30;;;2.10;;
74894;SDS011;63447;49.446;8.666;2023-07-08T15:41:41;7.07;;;2.25;;
74894;SDS011;63447;49.446;8.666;2023-07-08T15:44:10;6.32;;;2.60;;
74894;SDS011;63447;49.446;8.666;2023-07-08T15:46:40;6.40;;;2.65;;
74894;SDS011;63447;49.446;8.666;2023-07-08T15:49:14;6.45;;;2.25;;
74894;SDS011;63447;49.446;8.666;2023-07-08T15:51:43;7.03;;;2.30;;
74894;SDS011;63447;49.446;8.666;2023-07-08T15:56:41;6.65;;;2.33;;
74894;SDS011;63447;49.446;8.666;2023-07-08T15:59:13;6.30;;;2.50;;
74894;SDS011;63447;49.446;8.666;2023-07-08T16:01:42;6.65;;;3.00;;
74894;SDS011;63447;49.446;8.666;2023-07-08T16:04:18;6.45;;;2.45;;
74894;SDS011;63447;49.446;8.666;2023-07-08T16:06:50;6.63;;;2.30;;
74894;SDS011;63447;49.446;8.666;2023-07-08T16:09:16;5.15;;;2.35;;
74894;SDS011;63447;49.446;8.666;2023-07-08T16:11:41;5.87;;;2.30;;
74894;SDS011;63447;49.446;8.666;2023-07-08T16:14:09;6.85;;;2.53;;
74894;SDS011;63447;49.446;8.666;2023-07-08T16:16:37;4.80;;;1.92;;
74894;SDS011;63447;49.446;8.666;2023-07-08T16:19:03;5.53;;;2.17;;
74894;SDS011;63447;49.446;8.666;2023-07-08T16:21:32;6.30;;;2.60;;